createdAt,value
2023-02-19T00:01:32.061Z,10.90
2023-02-19T00:04:07.639Z,11.00
2023-02-19T00:06:35.915Z,11.40
2023-02-19T00:09:03.530Z,13.10
2023-02-19T00:11:32.688Z,12.30
2023-02-19T00:14:00.961Z,11.60
2023-02-19T00:16:49.615Z,11.70
2023-02-19T00:19:18.680Z,11.90
2023-02-19T00:21:45.621Z,12.10
2023-02-19T00:24:13.565Z,12.60
2023-02-19T00:26:41.096Z,13.80
2023-02-19T00:29:08.038Z,13.80
2023-02-19T00:31:37.909Z,13.20
2023-02-19T00:34:06.462Z,12.40
2023-02-19T00:36:36.248Z,12.70
2023-02-19T00:39:04.747Z,14.20
2023-02-19T00:41:31.942Z,15.60
2023-02-19T00:44:00.721Z,14.00
2023-02-19T00:46:34.535Z,13.70
2023-02-19T00:49:01.816Z,12.80
2023-02-19T00:51:34.124Z,12.00
2023-02-19T00:54:01.283Z,12.30
2023-02-19T00:56:28.638Z,13.10
2023-02-19T00:58:56.520Z,13.40
2023-02-19T01:01:24.060Z,14.20
2023-02-19T01:03:50.938Z,13.30
2023-02-19T01:06:19.982Z,12.30
2023-02-19T01:08:49.035Z,12.70
2023-02-19T01:11:16.996Z,12.70
2023-02-19T01:13:44.177Z,13.80
2023-02-19T01:16:13.777Z,12.10
2023-02-19T01:18:43.185Z,12.00
2023-02-19T01:21:14.607Z,12.90
2023-02-19T01:23:45.274Z,12.40
2023-02-19T01:26:20.227Z,11.00
2023-02-19T01:28:48.371Z,12.60
2023-02-19T01:31:20.921Z,12.00
2023-02-19T01:33:49.976Z,12.60
2023-02-19T01:36:17.001Z,11.40
2023-02-19T01:38:44.126Z,11.10
2023-02-19T01:41:14.578Z,10.00
2023-02-19T01:44:13.852Z,11.50
2023-02-19T01:46:42.315Z,10.50
2023-02-19T01:49:19.736Z,10.60
2023-02-19T01:51:49.762Z,11.30
2023-02-19T01:54:18.222Z,10.80
2023-02-19T01:56:46.403Z,9.80
2023-02-19T01:59:13.374Z,11.20
2023-02-19T02:01:40.343Z,10.40
2023-02-19T02:04:11.016Z,9.90
2023-02-19T02:06:57.689Z,9.10
2023-02-19T02:09:46.768Z,9.40
2023-02-19T02:12:14.154Z,7.90
2023-02-19T02:14:47.239Z,6.80
2023-02-19T02:17:16.963Z,8.20
2023-02-19T02:20:03.584Z,7.90
2023-02-19T02:22:36.724Z,7.20
2023-02-19T02:25:41.553Z,6.60
2023-02-19T02:28:13.729Z,6.90
2023-02-19T02:30:59.078Z,7.40
2023-02-19T02:33:39.673Z,6.80
2023-02-19T02:36:12.982Z,6.20
2023-02-19T02:38:44.416Z,6.50
2023-02-19T02:41:12.661Z,6.40
2023-02-19T02:43:39.737Z,6.70
2023-02-19T02:46:07.060Z,6.50
2023-02-19T02:48:39.391Z,6.10
2023-02-19T02:51:20.293Z,7.30
2023-02-19T02:54:23.152Z,5.90
2023-02-19T02:56:50.646Z,5.70
2023-02-19T02:59:20.180Z,6.20
2023-02-19T03:02:10.418Z,6.30
2023-02-19T03:05:14.730Z,5.50
2023-02-19T03:07:41.766Z,5.70
2023-02-19T03:10:11.517Z,5.50
2023-02-19T03:12:59.240Z,5.50
2023-02-19T03:15:48.485Z,6.00
2023-02-19T03:18:35.772Z,5.70
2023-02-19T03:21:02.712Z,6.10
2023-02-19T03:23:50.182Z,5.80
2023-02-19T03:26:17.844Z,6.00
2023-02-19T03:29:05.052Z,5.20
2023-02-19T03:31:33.295Z,5.80
2023-02-19T03:34:04.176Z,4.70
2023-02-19T03:36:37.182Z,5.80
2023-02-19T03:39:07.067Z,5.50
2023-02-19T03:41:43.031Z,5.30
2023-02-19T03:44:25.640Z,5.20
2023-02-19T03:47:17.258Z,5.10
2023-02-19T03:50:01.050Z,5.00
2023-02-19T03:53:02.042Z,4.40
2023-02-19T03:55:34.798Z,4.90
2023-02-19T03:58:26.613Z,4.80
2023-02-19T04:01:02.881Z,4.20
2023-02-19T04:03:56.790Z,4.20
2023-02-19T04:06:28.746Z,4.90
2023-02-19T04:08:59.386Z,4.70
2023-02-19T04:11:27.608Z,4.20
2023-02-19T04:14:16.940Z,4.10
2023-02-19T04:16:48.582Z,3.80
2023-02-19T04:19:20.120Z,3.70
2023-02-19T04:21:47.652Z,4.40
2023-02-19T04:24:21.927Z,3.90
2023-02-19T04:26:49.268Z,4.30
2023-02-19T04:29:16.170Z,4.40
2023-02-19T04:31:43.043Z,3.70
2023-02-19T04:34:09.869Z,5.10
2023-02-19T04:36:36.963Z,3.70
2023-02-19T04:39:08.367Z,4.10
2023-02-19T04:41:35.217Z,3.30
2023-02-19T04:44:01.973Z,3.60
2023-02-19T04:46:28.849Z,3.30
2023-02-19T04:48:56.028Z,3.50
2023-02-19T04:51:23.008Z,3.40
2023-02-19T04:53:52.489Z,4.20
2023-02-19T04:56:19.475Z,3.30
2023-02-19T04:58:46.487Z,3.60
2023-02-19T05:01:14.038Z,3.50
2023-02-19T05:03:41.248Z,4.70
2023-02-19T05:06:10.158Z,3.50
2023-02-19T05:08:37.489Z,3.60
2023-02-19T05:11:06.185Z,3.70
2023-02-19T05:13:33.352Z,4.40
2023-02-19T05:16:10.560Z,3.70
2023-02-19T05:18:37.482Z,4.40
2023-02-19T05:21:04.619Z,3.90
2023-02-19T05:23:31.479Z,3.90
2023-02-19T05:25:58.236Z,4.00
2023-02-19T05:28:34.280Z,4.30
2023-02-19T05:31:06.765Z,4.20
2023-02-19T05:33:33.813Z,4.30
2023-02-19T05:36:08.087Z,3.70
2023-02-19T05:38:35.611Z,5.10
2023-02-19T05:41:12.689Z,5.10
2023-02-19T05:43:41.468Z,3.70
2023-02-19T05:46:11.301Z,4.00
2023-02-19T05:48:38.313Z,3.90
2023-02-19T05:51:07.229Z,4.10
2023-02-19T05:53:34.774Z,4.80
2023-02-19T05:56:01.921Z,4.90
2023-02-19T05:58:29.381Z,4.60
2023-02-19T06:00:58.691Z,4.40
2023-02-19T06:03:25.685Z,4.50
2023-02-19T06:05:52.488Z,4.70
2023-02-19T06:08:19.303Z,4.50
2023-02-19T06:10:46.183Z,4.40
2023-02-19T06:13:13.125Z,4.50
2023-02-19T06:15:40.008Z,4.20
2023-02-19T06:18:06.753Z,5.00
2023-02-19T06:20:33.568Z,4.50
2023-02-19T06:23:02.914Z,3.80
2023-02-19T06:25:29.725Z,3.90
2023-02-19T06:27:56.567Z,4.30
2023-02-19T06:30:23.497Z,4.00
2023-02-19T06:32:54.478Z,4.50
2023-02-19T06:35:21.465Z,4.10
2023-02-19T06:37:49.387Z,4.70
2023-02-19T06:40:16.988Z,4.70
2023-02-19T06:42:43.808Z,4.20
2023-02-19T06:45:10.839Z,4.20
2023-02-19T06:47:38.002Z,4.40
2023-02-19T06:50:07.538Z,4.20
2023-02-19T06:52:34.422Z,4.90
2023-02-19T06:55:01.218Z,5.10
2023-02-19T06:57:28.016Z,4.70
2023-02-19T06:59:54.781Z,4.20
2023-02-19T07:02:21.651Z,4.60
2023-02-19T07:04:48.491Z,4.50
2023-02-19T07:07:15.237Z,6.20
2023-02-19T07:09:44.442Z,4.60
2023-02-19T07:12:11.592Z,5.10
2023-02-19T07:14:38.358Z,5.30
2023-02-19T07:17:07.564Z,5.30
2023-02-19T07:19:34.375Z,5.60
2023-02-19T07:22:01.384Z,6.00
2023-02-19T07:24:28.177Z,5.10
2023-02-19T07:26:55.130Z,5.80
2023-02-19T07:29:21.920Z,5.70
2023-02-19T07:31:48.764Z,5.90
2023-02-19T07:34:15.573Z,5.80
2023-02-19T07:36:42.379Z,5.80
2023-02-19T07:39:12.998Z,5.30
2023-02-19T07:41:42.868Z,6.00
2023-02-19T07:44:16.573Z,5.30
2023-02-19T07:46:44.034Z,5.60
2023-02-19T07:49:10.810Z,6.00
2023-02-19T07:51:40.082Z,5.40
2023-02-19T07:54:08.050Z,5.30
2023-02-19T07:56:34.906Z,6.20
2023-02-19T07:59:01.855Z,5.60
2023-02-19T08:01:47.645Z,5.60
2023-02-19T08:04:15.351Z,5.50
2023-02-19T08:06:42.864Z,6.10
2023-02-19T08:09:12.278Z,5.50
2023-02-19T08:11:57.847Z,6.10
2023-02-19T08:14:28.697Z,6.40
2023-02-19T08:16:56.264Z,7.20
2023-02-19T08:19:23.106Z,5.90
2023-02-19T08:21:50.860Z,6.60
2023-02-19T08:24:19.956Z,5.60
2023-02-19T08:26:46.805Z,5.20
2023-02-19T08:29:13.758Z,6.00
2023-02-19T08:31:40.670Z,5.80
2023-02-19T08:34:07.880Z,6.50
2023-02-19T08:36:34.675Z,5.90
2023-02-19T08:39:01.550Z,6.20
2023-02-19T08:41:28.396Z,5.90
2023-02-19T08:43:58.018Z,6.40
2023-02-19T08:46:27.019Z,5.60
2023-02-19T08:48:53.859Z,5.70
2023-02-19T08:51:20.813Z,5.70
2023-02-19T08:53:47.884Z,6.10
2023-02-19T08:56:16.642Z,5.90
2023-02-19T08:58:44.223Z,5.10
2023-02-19T09:01:14.004Z,6.00
2023-02-19T09:03:41.994Z,5.70
2023-02-19T09:06:15.908Z,5.30
2023-02-19T09:08:42.744Z,5.40
2023-02-19T09:11:12.885Z,5.50
2023-02-19T09:13:40.137Z,6.20
2023-02-19T09:16:07.462Z,6.50
2023-02-19T09:18:34.844Z,6.60
2023-02-19T09:21:04.698Z,6.60
2023-02-19T09:23:38.063Z,6.60
2023-02-19T09:26:07.661Z,6.00
2023-02-19T09:28:34.729Z,6.40
2023-02-19T09:31:06.456Z,7.00
2023-02-19T09:33:35.851Z,6.40
2023-02-19T09:36:03.966Z,6.70
2023-02-19T09:38:31.130Z,6.40
2023-02-19T09:40:59.162Z,6.70
2023-02-19T09:43:28.290Z,5.90
2023-02-19T09:46:02.851Z,5.70
2023-02-19T09:50:57.530Z,4.80
2023-02-19T09:53:28.627Z,5.20
2023-02-19T09:55:55.825Z,5.60
2023-02-19T09:58:27.182Z,6.10
2023-02-19T10:00:55.945Z,5.70
2023-02-19T10:03:32.052Z,5.40
2023-02-19T10:06:05.627Z,5.30
2023-02-19T10:08:34.736Z,5.70
2023-02-19T10:11:06.278Z,5.60
2023-02-19T10:13:38.203Z,6.20
2023-02-19T10:16:07.602Z,5.90
2023-02-19T10:18:41.482Z,6.00
2023-02-19T10:21:12.181Z,5.90
2023-02-19T10:23:42.995Z,6.90
2023-02-19T10:26:13.369Z,7.10
2023-02-19T10:28:43.264Z,7.40
2023-02-19T10:31:22.838Z,7.50
2023-02-19T10:33:55.191Z,6.90
2023-02-19T10:36:38.456Z,6.80
2023-02-19T10:39:39.020Z,7.70
2023-02-19T10:42:06.070Z,8.10
2023-02-19T10:44:41.719Z,7.80
2023-02-19T10:47:08.701Z,7.30
2023-02-19T10:49:40.941Z,7.80
2023-02-19T10:52:21.096Z,5.40
2023-02-19T10:54:53.707Z,4.20
2023-02-19T10:57:30.649Z,3.10
2023-02-19T11:00:02.349Z,2.70
2023-02-19T11:02:32.040Z,2.50
2023-02-19T11:05:05.878Z,2.30
2023-02-19T11:07:45.589Z,2.50
2023-02-19T11:10:42.517Z,1.70
2023-02-19T11:13:16.303Z,1.60
2023-02-19T11:15:45.916Z,1.50
2023-02-19T11:18:12.619Z,2.00
2023-02-19T11:20:50.409Z,1.90
2023-02-19T11:23:22.529Z,1.80
2023-02-19T11:25:50.328Z,1.80
2023-02-19T11:28:20.107Z,1.80
2023-02-19T11:30:47.879Z,2.00
2023-02-19T11:33:17.477Z,1.60
2023-02-19T11:35:44.986Z,1.50
2023-02-19T11:38:13.854Z,1.60
2023-02-19T11:41:08.725Z,1.70
2023-02-19T11:43:48.101Z,2.00
2023-02-19T11:46:40.047Z,2.20
2023-02-19T11:49:20.131Z,2.40
2023-02-19T11:52:08.780Z,2.00
2023-02-19T11:54:49.437Z,2.10
2023-02-19T11:57:35.109Z,2.10
2023-02-19T12:00:22.322Z,2.10
2023-02-19T12:03:18.567Z,2.00
2023-02-19T12:05:58.072Z,2.00
2023-02-19T12:08:46.618Z,1.90
2023-02-19T12:11:44.980Z,2.10
2023-02-19T12:14:39.844Z,2.40
2023-02-19T12:17:24.974Z,1.50
2023-02-19T12:20:10.636Z,2.10
2023-02-19T12:23:00.410Z,1.90
2023-02-19T12:25:30.392Z,1.90
2023-02-19T12:28:35.008Z,1.80
2023-02-19T12:31:35.316Z,1.70
2023-02-19T12:34:08.097Z,1.90
2023-02-19T12:36:50.916Z,1.40
2023-02-19T12:39:24.311Z,1.50
2023-02-19T12:42:07.790Z,1.70
2023-02-19T12:44:57.868Z,1.40
2023-02-19T12:47:30.280Z,2.00
2023-02-19T12:50:17.498Z,1.80
2023-02-19T12:52:47.442Z,1.90
2023-02-19T12:55:22.425Z,2.50
2023-02-19T12:57:49.968Z,2.10
2023-02-19T13:00:39.617Z,2.00
2023-02-19T13:03:35.433Z,1.30
2023-02-19T13:06:12.039Z,1.10
2023-02-19T13:08:57.855Z,1.10
2023-02-19T13:11:36.346Z,0.90
2023-02-19T13:14:08.930Z,1.10
2023-02-19T13:16:39.826Z,1.00
2023-02-19T13:19:06.823Z,0.90
2023-02-19T13:21:55.472Z,1.00
2023-02-19T13:24:28.206Z,0.90
2023-02-19T13:27:32.939Z,1.10
2023-02-19T13:30:54.204Z,1.40
2023-02-19T13:33:43.520Z,1.40
2023-02-19T13:36:16.846Z,1.20
2023-02-19T13:38:45.995Z,1.30
2023-02-19T13:41:21.877Z,2.20
2023-02-19T13:43:55.393Z,2.00
2023-02-19T13:46:22.738Z,1.40
2023-02-19T13:49:24.625Z,1.20
2023-02-19T13:51:59.278Z,1.40
2023-02-19T13:54:40.451Z,1.20
2023-02-19T13:57:27.954Z,1.40
2023-02-19T13:59:56.734Z,1.20
2023-02-19T14:02:26.135Z,1.20
2023-02-19T14:05:01.147Z,1.20
2023-02-19T14:07:27.947Z,1.40
2023-02-19T14:09:55.137Z,1.20
2023-02-19T14:12:24.815Z,1.20
2023-02-19T14:14:56.606Z,1.20
2023-02-19T14:17:23.416Z,1.10
2023-02-19T14:19:54.704Z,1.00
2023-02-19T14:22:52.907Z,1.20
2023-02-19T14:25:22.544Z,1.00
2023-02-19T14:27:50.615Z,1.00
2023-02-19T14:30:18.334Z,0.70
2023-02-19T14:32:50.938Z,0.80
2023-02-19T14:35:22.845Z,1.10
2023-02-19T14:37:51.099Z,1.00
2023-02-19T14:40:21.756Z,0.80
2023-02-19T14:42:50.063Z,1.30
2023-02-19T14:45:17.990Z,1.30
2023-02-19T14:47:45.094Z,1.40
2023-02-19T14:50:28.874Z,1.50
2023-02-19T14:52:58.944Z,1.30
2023-02-19T14:55:32.690Z,1.40
2023-02-19T14:58:02.153Z,1.40
2023-02-19T15:00:31.234Z,1.70
2023-02-19T15:03:00.396Z,1.70
2023-02-19T15:05:30.955Z,1.30
2023-02-19T15:08:00.439Z,1.20
2023-02-19T15:10:28.511Z,1.40
2023-02-19T15:12:57.508Z,0.90
2023-02-19T15:15:29.753Z,1.10
2023-02-19T15:17:57.885Z,1.60
2023-02-19T15:20:26.670Z,2.00
2023-02-19T15:22:58.818Z,2.50
2023-02-19T15:25:31.038Z,2.30
2023-02-19T15:28:23.561Z,1.80
2023-02-19T15:30:59.682Z,1.60
2023-02-19T15:33:27.962Z,1.60
2023-02-19T15:36:04.811Z,1.60
2023-02-19T15:38:33.221Z,1.50
2023-02-19T15:41:02.539Z,1.80
2023-02-19T15:43:40.202Z,1.30
2023-02-19T15:46:14.960Z,1.90
2023-02-19T15:48:46.601Z,2.00
2023-02-19T15:51:31.790Z,2.00
2023-02-19T15:54:07.993Z,1.70
2023-02-19T15:56:38.249Z,1.40
2023-02-19T15:59:13.700Z,1.60
2023-02-19T16:01:40.861Z,1.40
2023-02-19T16:04:16.438Z,1.40
2023-02-19T16:06:58.207Z,1.80
2023-02-19T16:09:32.707Z,1.60
2023-02-19T16:14:35.100Z,2.00
2023-02-19T16:17:10.760Z,2.00
2023-02-19T16:19:46.845Z,1.90
2023-02-19T16:22:16.721Z,1.30
2023-02-19T16:24:46.229Z,1.50
2023-02-19T16:27:14.329Z,1.50
2023-02-19T16:29:41.663Z,2.20
2023-02-19T16:32:16.656Z,2.10
2023-02-19T16:34:46.918Z,2.30
2023-02-19T16:37:35.687Z,1.40
2023-02-19T16:40:08.798Z,1.70
2023-02-19T16:42:58.472Z,1.60
2023-02-19T16:45:27.407Z,1.70
2023-02-19T16:47:54.358Z,2.10
2023-02-19T16:50:23.794Z,1.90
2023-02-19T16:52:59.142Z,1.90
2023-02-19T16:55:30.209Z,2.10
2023-02-19T16:57:57.113Z,2.30
2023-02-19T17:00:26.463Z,3.20
2023-02-19T17:02:55.619Z,2.80
2023-02-19T17:05:23.314Z,2.40
2023-02-19T17:07:50.452Z,2.80
2023-02-19T17:10:24.938Z,2.60
2023-02-19T17:12:55.595Z,2.50
2023-02-19T17:15:23.464Z,2.20
2023-02-19T17:17:50.310Z,2.00
2023-02-19T17:20:17.170Z,2.90
2023-02-19T17:22:44.329Z,2.70
2023-02-19T17:25:11.360Z,3.00
2023-02-19T17:27:38.134Z,2.20
2023-02-19T17:30:14.232Z,2.60
2023-02-19T17:32:41.041Z,2.40
2023-02-19T17:35:10.723Z,2.50
2023-02-19T17:37:37.575Z,3.00
2023-02-19T17:40:04.556Z,2.20
2023-02-19T17:42:31.306Z,2.20
2023-02-19T17:44:58.078Z,3.10
2023-02-19T17:47:24.865Z,2.30
2023-02-19T17:49:51.797Z,2.90
2023-02-19T17:52:19.577Z,2.90
2023-02-19T17:54:46.726Z,3.00
2023-02-19T17:57:13.578Z,2.50
2023-02-19T17:59:40.521Z,2.90
2023-02-19T18:02:07.784Z,2.90
2023-02-19T18:04:36.459Z,2.30
2023-02-19T18:07:03.831Z,2.50
2023-02-19T18:09:30.622Z,2.80
2023-02-19T18:11:57.530Z,2.90
2023-02-19T18:14:24.588Z,3.00
2023-02-19T18:16:51.690Z,3.20
2023-02-19T18:19:18.893Z,2.40
2023-02-19T18:21:45.737Z,2.80
2023-02-19T18:24:12.482Z,2.80
2023-02-19T18:26:41.885Z,2.70
2023-02-19T18:29:08.646Z,2.50
2023-02-19T18:31:37.767Z,3.20
2023-02-19T18:34:05.899Z,3.20
2023-02-19T18:36:32.952Z,3.40
2023-02-19T18:38:59.900Z,2.80
2023-02-19T18:41:29.731Z,3.10
2023-02-19T18:43:56.598Z,2.50
2023-02-19T18:46:26.214Z,2.40
2023-02-19T18:48:52.994Z,2.90
2023-02-19T18:51:23.579Z,2.60
2023-02-19T18:53:50.919Z,3.40
2023-02-19T18:56:17.864Z,2.60
2023-02-19T18:58:44.625Z,2.50
2023-02-19T19:01:13.937Z,2.40
2023-02-19T19:03:41.079Z,3.10
2023-02-19T19:06:07.909Z,2.60
2023-02-19T19:08:34.863Z,2.40
2023-02-19T19:11:01.619Z,2.30
2023-02-19T19:13:28.409Z,2.30
2023-02-19T19:15:55.245Z,2.10
2023-02-19T19:18:22.680Z,2.50
2023-02-19T19:20:49.368Z,2.20
2023-02-19T19:23:16.166Z,2.10
2023-02-19T19:25:42.997Z,2.00
2023-02-19T19:28:09.851Z,1.70
2023-02-19T19:30:36.586Z,1.90
2023-02-19T19:33:03.700Z,2.00
2023-02-19T19:35:30.487Z,2.20
2023-02-19T19:37:57.269Z,2.20
2023-02-19T19:40:24.392Z,2.10
2023-02-19T19:42:52.515Z,2.30
2023-02-19T19:45:19.294Z,1.90
2023-02-19T19:47:46.721Z,2.00
2023-02-19T19:50:16.031Z,1.80
2023-02-19T19:52:42.865Z,1.60
2023-02-19T19:55:12.017Z,1.60
2023-02-19T19:57:40.849Z,1.80
2023-02-19T20:00:09.397Z,1.80
2023-02-19T20:02:36.368Z,1.50
2023-02-19T20:05:03.212Z,1.60
2023-02-19T20:07:29.943Z,1.70
2023-02-19T20:09:57.088Z,1.60
2023-02-19T20:12:23.844Z,1.70
2023-02-19T20:14:50.631Z,2.40
2023-02-19T20:17:17.575Z,2.00
2023-02-19T20:19:47.552Z,2.80
2023-02-19T20:22:14.319Z,3.00
2023-02-19T20:24:41.155Z,2.60
2023-02-19T20:27:08.213Z,2.30
2023-02-19T20:29:35.248Z,2.40
2023-02-19T20:32:03.950Z,2.20
2023-02-19T20:34:31.633Z,2.20
2023-02-19T20:36:58.973Z,2.40
2023-02-19T20:39:29.041Z,2.00
2023-02-19T20:41:57.516Z,2.20
2023-02-19T20:44:26.455Z,1.90
2023-02-19T20:46:57.112Z,2.00
2023-02-19T20:49:27.846Z,1.60
2023-02-19T20:51:58.166Z,1.90
2023-02-19T20:54:28.582Z,2.10
2023-02-19T20:56:58.125Z,2.30
2023-02-19T20:59:30.489Z,2.90
2023-02-19T21:01:58.678Z,2.90
2023-02-19T21:04:25.903Z,3.10
2023-02-19T21:06:52.743Z,4.00
2023-02-19T21:09:23.172Z,4.20
2023-02-19T21:11:50.742Z,4.20
2023-02-19T21:14:18.517Z,4.70
2023-02-19T21:16:45.672Z,4.20
2023-02-19T21:19:12.610Z,4.40
2023-02-19T21:21:40.494Z,4.20
2023-02-19T21:24:10.776Z,4.20
2023-02-19T21:26:38.986Z,4.10
2023-02-19T21:29:07.416Z,4.40
2023-02-19T21:31:42.623Z,4.50
2023-02-19T21:34:12.003Z,4.90
2023-02-19T21:36:39.066Z,4.40
2023-02-19T21:39:07.158Z,4.50
2023-02-19T21:41:34.100Z,3.80
2023-02-19T21:44:01.351Z,4.40
2023-02-19T21:46:28.143Z,3.80
2023-02-19T21:48:57.804Z,3.90
2023-02-19T21:51:31.135Z,4.10
2023-02-19T21:53:58.763Z,3.50
2023-02-19T21:56:30.174Z,3.30
2023-02-19T21:58:57.067Z,3.60
2023-02-19T22:01:29.527Z,2.80
2023-02-19T22:03:56.580Z,3.00
2023-02-19T22:06:24.929Z,3.90
2023-02-19T22:08:52.032Z,3.90
2023-02-19T22:11:19.065Z,3.10
2023-02-19T22:13:46.117Z,3.50
2023-02-19T22:16:13.223Z,3.50
2023-02-19T22:18:47.217Z,3.60
2023-02-19T22:21:14.519Z,3.20
2023-02-19T22:23:46.905Z,2.60
2023-02-19T22:26:24.939Z,2.80
2023-02-19T22:28:52.155Z,3.10
2023-02-19T22:31:21.087Z,3.20
2023-02-19T22:33:48.284Z,3.40
2023-02-19T22:36:23.901Z,3.20
2023-02-19T22:38:51.018Z,3.40
2023-02-19T22:41:18.793Z,3.40
2023-02-19T22:43:46.059Z,3.80
2023-02-19T22:46:20.818Z,3.60
2023-02-19T22:48:50.805Z,3.70
2023-02-19T22:51:20.694Z,3.00
2023-02-19T22:53:55.152Z,3.50
2023-02-19T22:56:24.427Z,3.00
2023-02-19T22:58:51.850Z,3.40
2023-02-19T23:01:19.245Z,3.10
2023-02-19T23:03:57.321Z,3.70
2023-02-19T23:06:26.656Z,3.10
2023-02-19T23:08:54.938Z,3.50
2023-02-19T23:11:28.349Z,3.20
2023-02-19T23:13:58.375Z,3.30
2023-02-19T23:16:25.515Z,3.10
2023-02-19T23:18:52.565Z,4.60
2023-02-19T23:21:20.522Z,3.10
2023-02-19T23:23:48.307Z,3.10
2023-02-19T23:26:15.992Z,3.40
2023-02-19T23:28:46.045Z,3.60
2023-02-19T23:31:13.673Z,3.80
2023-02-19T23:33:41.223Z,4.90
2023-02-19T23:36:08.697Z,5.40
2023-02-19T23:38:35.630Z,6.20
2023-02-19T23:41:02.569Z,5.50
2023-02-19T23:43:32.597Z,5.40
2023-02-19T23:45:59.464Z,5.30
2023-02-19T23:48:26.450Z,5.80
2023-02-19T23:50:53.337Z,6.00
2023-02-19T23:53:20.077Z,5.90
2023-02-19T23:55:47.030Z,6.80
2023-02-19T23:58:13.880Z,5.90
